createdAt,value
2023-05-13T00:01:24.464Z,1017.08
2023-05-13T00:02:24.913Z,1017.03
2023-05-13T00:04:19.489Z,1017.10
2023-05-13T00:05:19.943Z,1017.07
2023-05-13T00:07:14.537Z,1017.06
2023-05-13T00:08:14.964Z,1017.10
2023-05-13T00:10:10.567Z,1017.06
2023-05-13T00:11:11.011Z,1017.05
2023-05-13T00:13:05.601Z,1017.09
2023-05-13T00:14:06.000Z,1017.09
2023-05-13T00:16:00.672Z,1017.09
2023-05-13T00:17:01.038Z,1017.12
2023-05-13T00:18:56.668Z,1017.06
2023-05-13T00:19:57.055Z,1017.06
2023-05-13T00:21:51.659Z,1017.04
2023-05-13T00:22:52.099Z,1017.05
2023-05-13T00:24:46.709Z,1017.08
2023-05-13T00:25:47.135Z,1017.08
2023-05-13T00:27:41.757Z,1017.09
2023-05-13T00:28:42.169Z,1017.08
2023-05-13T00:30:36.778Z,1017.12
2023-05-13T00:31:37.285Z,1017.11
2023-05-13T00:33:31.821Z,1017.13
2023-05-13T00:34:32.242Z,1017.14
2023-05-13T00:35:32.675Z,1017.11
2023-05-13T00:36:33.105Z,1017.13
2023-05-13T00:37:33.553Z,1017.13
2023-05-13T00:38:33.972Z,1017.14
2023-05-13T00:39:34.396Z,1017.18
2023-05-13T00:40:34.824Z,1017.16
2023-05-13T00:41:35.258Z,1017.15
2023-05-13T00:42:35.684Z,1017.17
2023-05-13T00:43:38.029Z,1017.12
2023-05-13T00:44:36.553Z,1017.18
2023-05-13T00:45:37.009Z,1017.16
2023-05-13T00:46:37.409Z,1017.22
2023-05-13T00:47:37.849Z,1017.23
2023-05-13T00:48:38.270Z,1017.24
2023-05-13T00:49:38.701Z,1017.21
2023-05-13T00:50:39.129Z,1017.25
2023-05-13T00:51:39.581Z,1017.23
2023-05-13T00:52:40.028Z,1017.25
2023-05-13T00:53:41.045Z,1017.25
2023-05-13T00:54:40.854Z,1017.27
2023-05-13T00:55:41.284Z,1017.26
2023-05-13T00:56:41.721Z,1017.27
2023-05-13T00:57:42.144Z,1017.27
2023-05-13T00:58:42.577Z,1017.25
2023-05-13T00:59:43.006Z,1017.30
2023-05-13T01:00:43.435Z,1017.30
2023-05-13T01:01:43.916Z,1017.27
2023-05-13T01:02:44.326Z,1017.30
2023-05-13T01:03:44.719Z,1017.31
2023-05-13T01:04:45.160Z,1017.30
2023-05-13T01:05:45.587Z,1017.32
2023-05-13T01:06:46.018Z,1017.32
2023-05-13T01:07:46.460Z,1017.33
2023-05-13T01:08:46.872Z,1017.34
2023-05-13T01:09:47.308Z,1017.34
2023-05-13T01:10:47.747Z,1017.34
2023-05-13T01:11:48.196Z,1017.31
2023-05-13T01:12:48.604Z,1017.36
2023-05-13T01:13:49.061Z,1017.32
2023-05-13T01:14:49.452Z,1017.34
2023-05-13T01:15:49.890Z,1017.35
2023-05-13T01:16:50.358Z,1017.40
2023-05-13T01:17:50.802Z,1017.36
2023-05-13T01:18:56.084Z,1017.34
2023-05-13T01:19:51.633Z,1017.36
2023-05-13T01:20:52.040Z,1017.38
2023-05-13T01:21:52.467Z,1017.37
2023-05-13T01:22:52.897Z,1017.39
2023-05-13T01:23:53.356Z,1017.39
2023-05-13T01:24:53.760Z,1017.42
2023-05-13T01:25:54.197Z,1017.46
2023-05-13T01:26:54.621Z,1017.44
2023-05-13T01:27:55.047Z,1017.47
2023-05-13T01:28:55.506Z,1017.51
2023-05-13T01:29:55.909Z,1017.48
2023-05-13T01:30:56.410Z,1017.48
2023-05-13T01:31:56.768Z,1017.53
2023-05-13T01:32:57.227Z,1017.56
2023-05-13T01:33:57.633Z,1017.53
2023-05-13T01:34:58.058Z,1017.53
2023-05-13T01:35:58.486Z,1017.54
2023-05-13T01:36:58.921Z,1017.56
2023-05-13T01:37:59.352Z,1017.53
2023-05-13T01:38:59.783Z,1017.59
2023-05-13T01:40:00.209Z,1017.55
2023-05-13T01:41:00.644Z,1017.57
2023-05-13T01:42:01.085Z,1017.60
2023-05-13T01:43:01.499Z,1017.62
2023-05-13T01:44:01.929Z,1017.61
2023-05-13T01:45:02.370Z,1017.60
2023-05-13T01:46:02.811Z,1017.62
2023-05-13T01:47:03.278Z,1017.63
2023-05-13T01:48:03.751Z,1017.63
2023-05-13T01:49:04.095Z,1017.60
2023-05-13T01:50:04.619Z,1017.61
2023-05-13T01:51:04.939Z,1017.64
2023-05-13T01:52:05.372Z,1017.64
2023-05-13T01:53:05.802Z,1017.64
2023-05-13T01:54:06.228Z,1017.61
2023-05-13T01:55:06.669Z,1017.57
2023-05-13T01:56:07.093Z,1017.60
2023-05-13T01:57:07.527Z,1017.63
2023-05-13T01:58:07.951Z,1017.59
2023-05-13T01:59:08.387Z,1017.61
2023-05-13T02:00:08.812Z,1017.62
2023-05-13T02:01:09.241Z,1017.60
2023-05-13T02:02:09.765Z,1017.58
2023-05-13T02:03:10.166Z,1017.58
2023-05-13T02:04:10.535Z,1017.60
2023-05-13T02:05:10.970Z,1017.61
2023-05-13T02:06:11.388Z,1017.60
2023-05-13T02:07:11.839Z,1017.58
2023-05-13T02:08:12.257Z,1017.60
2023-05-13T02:09:12.680Z,1017.58
2023-05-13T02:10:13.136Z,1017.56
2023-05-13T02:11:13.536Z,1017.59
2023-05-13T02:12:14.001Z,1017.57
2023-05-13T02:13:14.399Z,1017.59
2023-05-13T02:14:14.828Z,1017.56
2023-05-13T02:15:15.264Z,1017.61
2023-05-13T02:16:15.713Z,1017.62
2023-05-13T02:17:16.119Z,1017.61
2023-05-13T02:18:16.551Z,1017.63
2023-05-13T02:19:16.978Z,1017.65
2023-05-13T02:20:17.411Z,1017.62
2023-05-13T02:21:17.845Z,1017.61
2023-05-13T02:22:18.289Z,1017.66
2023-05-13T02:23:18.733Z,1017.60
2023-05-13T02:24:19.134Z,1017.62
2023-05-13T02:25:19.574Z,1017.57
2023-05-13T02:26:20.000Z,1017.61
2023-05-13T02:27:20.456Z,1017.59
2023-05-13T02:28:20.845Z,1017.64
2023-05-13T02:29:21.280Z,1017.61
2023-05-13T02:30:22.004Z,1017.63
2023-05-13T02:31:22.168Z,1017.64
2023-05-13T02:32:22.576Z,1017.66
2023-05-13T02:33:22.993Z,1017.68
2023-05-13T02:34:23.424Z,1017.63
2023-05-13T02:35:23.851Z,1017.69
2023-05-13T02:36:24.286Z,1017.67
2023-05-13T02:37:24.709Z,1017.72
2023-05-13T02:38:25.146Z,1017.68
2023-05-13T02:39:25.569Z,1017.66
2023-05-13T02:40:26.009Z,1017.73
2023-05-13T02:41:26.454Z,1017.67
2023-05-13T02:42:27.582Z,1017.69
2023-05-13T02:43:27.292Z,1017.69
2023-05-13T02:44:27.716Z,1017.66
2023-05-13T02:45:28.148Z,1017.69
2023-05-13T02:46:28.668Z,1017.72
2023-05-13T02:47:29.055Z,1017.70
2023-05-13T02:48:29.435Z,1017.72
2023-05-13T02:49:29.872Z,1017.71
2023-05-13T02:50:51.476Z,1017.69
2023-05-13T02:51:30.730Z,1017.70
2023-05-13T02:52:31.163Z,1017.71
2023-05-13T02:53:31.587Z,1017.69
2023-05-13T02:54:32.027Z,1017.75
2023-05-13T02:55:39.094Z,1017.68
2023-05-13T02:56:32.892Z,1017.78
2023-05-13T02:57:33.321Z,1017.78
2023-05-13T02:58:33.740Z,1017.81
2023-05-13T02:59:34.171Z,1017.76
2023-05-13T03:00:34.593Z,1017.78
2023-05-13T03:01:35.136Z,1017.75
2023-05-13T03:02:35.550Z,1017.74
2023-05-13T03:03:57.045Z,1017.80
2023-05-13T03:04:36.313Z,1017.80
2023-05-13T03:05:57.906Z,1017.81
2023-05-13T03:06:37.188Z,1017.77
2023-05-13T03:07:37.598Z,1017.79
2023-05-13T03:08:38.037Z,1017.79
2023-05-13T03:09:38.463Z,1017.81
2023-05-13T03:10:38.901Z,1017.79
2023-05-13T03:11:39.323Z,1017.85
2023-05-13T03:12:39.746Z,1017.80
2023-05-13T03:13:40.179Z,1017.81
2023-05-13T03:14:40.601Z,1017.87
2023-05-13T03:15:43.465Z,1017.87
2023-05-13T03:16:41.497Z,1017.82
2023-05-13T03:17:41.939Z,1017.80
2023-05-13T03:18:42.432Z,1017.85
2023-05-13T03:19:42.769Z,1017.86
2023-05-13T03:20:43.210Z,1017.86
2023-05-13T03:21:43.612Z,1017.86
2023-05-13T03:22:44.042Z,1017.89
2023-05-13T03:23:44.470Z,1017.87
2023-05-13T03:24:44.892Z,1017.87
2023-05-13T03:25:45.322Z,1017.90
2023-05-13T03:26:45.753Z,1017.87
2023-05-13T03:27:46.184Z,1017.91
2023-05-13T03:28:46.610Z,1017.89
2023-05-13T03:29:47.036Z,1017.87
2023-05-13T03:30:47.473Z,1017.92
2023-05-13T03:31:47.994Z,1017.91
2023-05-13T03:32:48.364Z,1017.93
2023-05-13T03:33:48.756Z,1017.88
2023-05-13T03:34:49.183Z,1017.89
2023-05-13T03:35:49.631Z,1017.91
2023-05-13T03:36:50.039Z,1017.92
2023-05-13T03:37:50.470Z,1017.94
2023-05-13T03:38:50.961Z,1017.92
2023-05-13T03:39:51.332Z,1017.94
2023-05-13T03:40:51.771Z,1017.97
2023-05-13T03:41:52.188Z,1017.97
2023-05-13T03:42:52.639Z,1017.93
2023-05-13T03:43:53.052Z,1017.91
2023-05-13T03:44:53.479Z,1017.93
2023-05-13T03:45:53.901Z,1017.92
2023-05-13T03:46:54.514Z,1017.94
2023-05-13T03:47:54.838Z,1017.96
2023-05-13T03:48:55.187Z,1018.00
2023-05-13T03:49:55.620Z,1017.99
2023-05-13T03:50:56.052Z,1017.99
2023-05-13T03:51:56.471Z,1018.00
2023-05-13T03:52:56.914Z,1018.00
2023-05-13T03:53:57.346Z,1018.03
2023-05-13T03:54:57.760Z,1018.03
2023-05-13T03:55:58.212Z,1018.01
2023-05-13T03:56:58.629Z,1018.02
2023-05-13T03:57:59.049Z,1018.08
2023-05-13T03:58:59.486Z,1018.06
2023-05-13T03:59:59.918Z,1018.09
2023-05-13T04:01:00.339Z,1018.10
2023-05-13T04:02:00.805Z,1018.09
2023-05-13T04:03:01.204Z,1018.11
2023-05-13T04:04:01.651Z,1018.18
2023-05-13T04:05:02.123Z,1018.20
2023-05-13T04:06:02.489Z,1018.24
2023-05-13T04:07:02.910Z,1018.26
2023-05-13T04:08:03.346Z,1018.23
2023-05-13T04:09:03.777Z,1018.26
2023-05-13T04:10:06.129Z,1018.23
2023-05-13T04:11:11.663Z,1018.25
2023-05-13T04:12:05.081Z,1018.26
2023-05-13T04:13:05.481Z,1018.27
2023-05-13T04:14:05.920Z,1018.25
2023-05-13T04:15:06.344Z,1018.32
2023-05-13T04:16:06.779Z,1018.25
2023-05-13T04:17:07.378Z,1018.30
2023-05-13T04:18:07.806Z,1018.35
2023-05-13T04:19:08.128Z,1018.30
2023-05-13T04:20:08.498Z,1018.33
2023-05-13T04:21:08.921Z,1018.31
2023-05-13T04:22:09.347Z,1018.33
2023-05-13T04:23:09.774Z,1018.31
2023-05-13T04:24:10.213Z,1018.35
2023-05-13T04:25:10.660Z,1018.37
2023-05-13T04:26:11.072Z,1018.42
2023-05-13T04:27:11.490Z,1018.36
2023-05-13T04:28:11.924Z,1018.39
2023-05-13T04:29:12.353Z,1018.43
2023-05-13T04:30:12.776Z,1018.42
2023-05-13T04:31:13.208Z,1018.43
2023-05-13T04:32:13.685Z,1018.43
2023-05-13T04:33:14.109Z,1018.41
2023-05-13T04:34:14.494Z,1018.47
2023-05-13T04:35:14.936Z,1018.47
2023-05-13T04:36:15.412Z,1018.49
2023-05-13T04:37:15.781Z,1018.47
2023-05-13T04:38:18.160Z,1018.48
2023-05-13T04:39:16.640Z,1018.49
2023-05-13T04:40:23.762Z,1018.51
2023-05-13T04:41:17.492Z,1018.51
2023-05-13T04:42:17.930Z,1018.52
2023-05-13T04:43:18.361Z,1018.51
2023-05-13T04:44:18.780Z,1018.52
2023-05-13T04:45:19.213Z,1018.52
2023-05-13T04:46:19.690Z,1018.56
2023-05-13T04:47:20.101Z,1018.54
2023-05-13T04:48:20.496Z,1018.59
2023-05-13T04:49:20.929Z,1018.54
2023-05-13T04:50:21.585Z,1018.57
2023-05-13T04:51:21.794Z,1018.57
2023-05-13T04:52:25.138Z,1018.59
2023-05-13T04:53:22.657Z,1018.59
2023-05-13T04:54:23.103Z,1018.57
2023-05-13T04:55:23.507Z,1018.58
2023-05-13T04:56:23.929Z,1018.56
2023-05-13T04:57:24.467Z,1018.59
2023-05-13T04:58:24.911Z,1018.57
2023-05-13T04:59:25.218Z,1018.58
2023-05-13T05:00:25.659Z,1018.59
2023-05-13T05:01:26.129Z,1018.60
2023-05-13T05:02:26.514Z,1018.65
2023-05-13T05:03:26.966Z,1018.66
2023-05-13T05:04:27.367Z,1018.65
2023-05-13T05:05:27.799Z,1018.64
2023-05-13T05:06:28.227Z,1018.67
2023-05-13T05:07:28.653Z,1018.67
2023-05-13T05:08:29.084Z,1018.66
2023-05-13T05:09:29.524Z,1018.65
2023-05-13T05:10:29.945Z,1018.67
2023-05-13T05:11:30.376Z,1018.63
2023-05-13T05:12:30.797Z,1018.61
2023-05-13T05:13:31.233Z,1018.66
2023-05-13T05:14:31.686Z,1018.62
2023-05-13T05:15:32.098Z,1018.65
2023-05-13T05:16:32.519Z,1018.66
2023-05-13T05:17:33.053Z,1018.63
2023-05-13T05:18:33.457Z,1018.70
2023-05-13T05:19:33.848Z,1018.71
2023-05-13T05:20:34.239Z,1018.66
2023-05-13T05:21:34.668Z,1018.71
2023-05-13T05:22:35.100Z,1018.66
2023-05-13T05:23:35.529Z,1018.69
2023-05-13T05:24:35.956Z,1018.71
2023-05-13T05:25:36.382Z,1018.69
2023-05-13T05:26:36.819Z,1018.72
2023-05-13T05:27:37.258Z,1018.74
2023-05-13T05:28:37.684Z,1018.75
2023-05-13T05:29:38.105Z,1018.72
2023-05-13T05:30:38.539Z,1018.74
2023-05-13T05:31:39.053Z,1018.80
2023-05-13T05:32:39.468Z,1018.77
2023-05-13T05:33:39.826Z,1018.78
2023-05-13T05:34:40.258Z,1018.76
2023-05-13T05:35:40.689Z,1018.78
2023-05-13T05:36:41.120Z,1018.78
2023-05-13T05:37:41.556Z,1018.75
2023-05-13T05:38:41.996Z,1018.78
2023-05-13T05:39:42.411Z,1018.77
2023-05-13T05:40:42.845Z,1018.76
2023-05-13T05:41:43.270Z,1018.77
2023-05-13T05:42:43.739Z,1018.78
2023-05-13T05:43:44.134Z,1018.80
2023-05-13T05:44:44.564Z,1018.76
2023-05-13T05:45:45.141Z,1018.84
2023-05-13T05:46:45.434Z,1018.81
2023-05-13T05:47:45.888Z,1018.82
2023-05-13T05:48:46.276Z,1018.85
2023-05-13T05:49:48.718Z,1018.85
2023-05-13T05:50:47.136Z,1018.89
2023-05-13T05:51:47.580Z,1018.85
2023-05-13T05:52:48.008Z,1018.85
2023-05-13T05:53:48.433Z,1018.86
2023-05-13T05:54:48.890Z,1018.88
2023-05-13T05:55:50.104Z,1018.85
2023-05-13T05:56:49.788Z,1018.88
2023-05-13T05:57:50.145Z,1018.89
2023-05-13T05:58:50.598Z,1018.89
2023-05-13T05:59:51.017Z,1018.86
2023-05-13T06:00:51.449Z,1018.89
2023-05-13T06:01:51.877Z,1018.83
2023-05-13T06:02:52.381Z,1018.84
2023-05-13T06:03:54.868Z,1018.88
2023-05-13T06:04:53.235Z,1018.85
2023-05-13T06:05:53.612Z,1018.90
2023-05-13T06:06:54.082Z,1018.88
2023-05-13T06:07:54.478Z,1018.93
2023-05-13T06:08:54.902Z,1018.89
2023-05-13T06:09:55.346Z,1018.90
2023-05-13T06:10:55.765Z,1018.94
2023-05-13T06:11:56.208Z,1018.97
2023-05-13T06:12:56.639Z,1018.96
2023-05-13T06:13:57.061Z,1018.98
2023-05-13T06:14:57.492Z,1018.95
2023-05-13T06:15:57.955Z,1018.96
2023-05-13T06:16:58.360Z,1018.93
2023-05-13T06:17:58.818Z,1018.90
2023-05-13T06:18:59.294Z,1018.96
2023-05-13T06:19:59.650Z,1018.94
2023-05-13T06:21:00.119Z,1018.94
2023-05-13T06:22:03.267Z,1018.94
2023-05-13T06:23:00.948Z,1018.96
2023-05-13T06:24:01.379Z,1018.93
2023-05-13T06:25:01.816Z,1018.93
2023-05-13T06:26:02.249Z,1018.92
2023-05-13T06:27:02.682Z,1018.94
2023-05-13T06:28:03.309Z,1018.91
2023-05-13T06:29:03.544Z,1018.90
2023-05-13T06:30:03.982Z,1018.93
2023-05-13T06:31:04.459Z,1018.91
2023-05-13T06:32:04.863Z,1018.90
2023-05-13T06:33:05.352Z,1018.88
2023-05-13T06:34:05.735Z,1018.90
2023-05-13T06:35:06.184Z,1018.86
2023-05-13T06:36:06.601Z,1018.85
2023-05-13T06:37:07.038Z,1018.86
2023-05-13T06:38:07.489Z,1018.89
2023-05-13T06:39:07.925Z,1018.82
2023-05-13T06:40:08.397Z,1018.85
2023-05-13T06:41:08.809Z,1018.78
2023-05-13T06:42:09.285Z,1018.79
2023-05-13T06:43:09.684Z,1018.76
2023-05-13T06:44:10.126Z,1018.72
2023-05-13T06:45:10.566Z,1018.76
2023-05-13T06:46:11.014Z,1018.71
2023-05-13T06:47:11.533Z,1018.71
2023-05-13T06:48:11.960Z,1018.70
2023-05-13T06:49:12.345Z,1018.70
2023-05-13T06:50:12.798Z,1018.73
2023-05-13T06:51:13.252Z,1018.71
2023-05-13T06:52:14.217Z,1018.76
2023-05-13T06:53:14.200Z,1018.73
2023-05-13T06:54:14.652Z,1018.71
2023-05-13T06:55:15.108Z,1018.69
2023-05-13T06:56:15.478Z,1018.68
2023-05-13T06:57:15.920Z,1018.69
2023-05-13T06:58:16.363Z,1018.67
2023-05-13T06:59:16.815Z,1018.66
2023-05-13T07:00:17.268Z,1018.65
2023-05-13T07:01:17.768Z,1018.63
2023-05-13T07:02:18.174Z,1018.62
2023-05-13T07:03:18.651Z,1018.67
2023-05-13T07:04:19.311Z,1018.65
2023-05-13T07:05:19.509Z,1018.65
2023-05-13T07:06:19.965Z,1018.58
2023-05-13T07:07:20.416Z,1018.62
2023-05-13T07:08:20.859Z,1018.62
2023-05-13T07:09:21.307Z,1018.59
2023-05-13T07:10:23.957Z,1018.58
2023-05-13T07:11:22.208Z,1018.62
2023-05-13T07:12:22.677Z,1018.59
2023-05-13T07:13:23.110Z,1018.50
2023-05-13T07:14:23.565Z,1018.50
2023-05-13T07:15:24.242Z,1018.54
2023-05-13T07:16:24.484Z,1018.54
2023-05-13T07:17:24.984Z,1018.56
2023-05-13T07:18:25.429Z,1018.60
2023-05-13T07:19:25.879Z,1018.48
2023-05-13T07:20:26.350Z,1018.53
2023-05-13T07:21:26.739Z,1018.58
2023-05-13T07:22:27.184Z,1018.47
2023-05-13T07:23:27.640Z,1018.51
2023-05-13T07:24:28.085Z,1018.46
2023-05-13T07:25:28.541Z,1018.44
2023-05-13T07:26:28.992Z,1018.48
2023-05-13T07:27:29.448Z,1018.45
2023-05-13T07:28:29.898Z,1018.50
2023-05-13T07:29:30.381Z,1018.44
2023-05-13T07:30:30.867Z,1018.50
2023-05-13T07:31:31.268Z,1018.53
2023-05-13T07:32:31.797Z,1018.49
2023-05-13T07:33:32.197Z,1018.47
2023-05-13T07:34:32.659Z,1018.43
2023-05-13T07:35:33.085Z,1018.45
2023-05-13T07:36:33.555Z,1018.41
2023-05-13T07:37:33.983Z,1018.41
2023-05-13T07:38:34.439Z,1018.44
2023-05-13T07:39:34.902Z,1018.37
2023-05-13T07:40:35.361Z,1018.38
2023-05-13T07:41:35.812Z,1018.38
2023-05-13T07:42:36.260Z,1018.38
2023-05-13T07:43:36.710Z,1018.37
2023-05-13T07:44:37.187Z,1018.37
2023-05-13T07:45:37.702Z,1018.36
2023-05-13T07:46:38.114Z,1018.38
2023-05-13T07:47:38.588Z,1018.40
2023-05-13T07:48:38.988Z,1018.36
2023-05-13T07:49:39.446Z,1018.35
2023-05-13T07:50:39.896Z,1018.39
2023-05-13T07:51:40.355Z,1018.32
2023-05-13T07:52:40.813Z,1018.32
2023-05-13T07:53:41.275Z,1018.40
2023-05-13T07:54:41.718Z,1018.40
2023-05-13T07:55:42.178Z,1018.33
2023-05-13T07:56:42.627Z,1018.35
2023-05-13T07:57:43.090Z,1018.34
2023-05-13T07:58:43.548Z,1018.37
2023-05-13T07:59:44.950Z,1018.34
2023-05-13T08:00:44.443Z,1018.36
2023-05-13T08:01:44.910Z,1018.44
2023-05-13T08:02:45.430Z,1018.35
2023-05-13T08:03:46.083Z,1018.32
2023-05-13T08:04:46.292Z,1018.36
2023-05-13T08:05:46.745Z,1018.35
2023-05-13T08:06:47.187Z,1018.34
2023-05-13T08:07:47.648Z,1018.41
2023-05-13T08:08:48.100Z,1018.35
2023-05-13T08:09:48.554Z,1018.34
2023-05-13T08:11:03.776Z,1018.41
2023-05-13T08:11:49.458Z,1018.41
2023-05-13T08:12:49.912Z,1018.36
2023-05-13T08:13:50.369Z,1018.44
2023-05-13T08:14:50.832Z,1018.33
2023-05-13T08:15:51.283Z,1018.36
2023-05-13T08:16:51.828Z,1018.38
2023-05-13T08:17:52.266Z,1018.29
2023-05-13T08:18:52.747Z,1018.34
2023-05-13T08:19:53.118Z,1018.37
2023-05-13T08:20:53.622Z,1018.40
2023-05-13T08:21:54.027Z,1018.48
2023-05-13T08:22:54.490Z,1018.40
2023-05-13T08:24:01.783Z,1018.38
2023-05-13T08:24:55.399Z,1018.37
2023-05-13T08:25:55.896Z,1018.32
2023-05-13T08:26:56.291Z,1018.39
2023-05-13T08:27:56.747Z,1018.35
2023-05-13T08:28:57.203Z,1018.42
2023-05-13T08:29:57.668Z,1018.39
2023-05-13T08:30:58.147Z,1018.33
2023-05-13T08:31:58.594Z,1018.39
2023-05-13T08:32:59.080Z,1018.38
2023-05-13T08:33:59.516Z,1018.42
2023-05-13T08:34:59.955Z,1018.36
2023-05-13T08:36:00.458Z,1018.38
2023-05-13T08:37:00.862Z,1018.41
2023-05-13T08:38:01.315Z,1018.33
2023-05-13T08:39:01.777Z,1018.44
2023-05-13T08:40:02.244Z,1018.44
2023-05-13T08:41:02.688Z,1018.42
2023-05-13T08:42:03.226Z,1018.47
2023-05-13T08:43:03.620Z,1018.38
2023-05-13T08:44:04.064Z,1018.44
2023-05-13T08:45:04.518Z,1018.46
2023-05-13T08:46:05.017Z,1018.40
2023-05-13T08:47:05.597Z,1018.43
2023-05-13T08:48:05.992Z,1018.47
2023-05-13T08:49:06.351Z,1018.43
2023-05-13T08:50:06.815Z,1018.50
2023-05-13T08:51:07.329Z,1018.52
2023-05-13T08:52:07.760Z,1018.46
2023-05-13T08:53:08.305Z,1018.58
2023-05-13T08:54:08.690Z,1018.49
2023-05-13T08:55:09.116Z,1018.49
2023-05-13T08:56:09.545Z,1018.43
2023-05-13T08:57:11.842Z,1018.55
2023-05-13T08:58:10.482Z,1018.49
2023-05-13T08:59:10.920Z,1018.48
2023-05-13T09:00:11.403Z,1018.41
2023-05-13T09:01:11.858Z,1018.38
2023-05-13T09:02:12.321Z,1018.44
2023-05-13T09:03:12.740Z,1018.40
2023-05-13T09:04:13.207Z,1018.41
2023-05-13T09:05:13.714Z,1018.41
2023-05-13T09:06:14.104Z,1018.48
2023-05-13T09:07:14.559Z,1018.45
2023-05-13T09:08:15.015Z,1018.43
2023-05-13T09:09:15.464Z,1018.41
2023-05-13T09:10:15.945Z,1018.43
2023-05-13T09:11:27.358Z,1018.41
2023-05-13T09:12:16.833Z,1018.41
2023-05-13T09:13:17.300Z,1018.42
2023-05-13T09:14:17.749Z,1018.35
2023-05-13T09:15:18.221Z,1018.34
2023-05-13T09:16:18.717Z,1018.26
2023-05-13T09:17:19.124Z,1018.40
2023-05-13T09:19:56.015Z,1018.27
2023-05-13T09:22:07.597Z,1018.24
2023-05-13T09:23:10.807Z,1018.26
2023-05-13T09:25:02.934Z,1018.34
2023-05-13T09:26:03.205Z,1018.23
2023-05-13T09:28:08.722Z,1018.25
2023-05-13T09:28:59.356Z,1018.24
2023-05-13T09:30:55.309Z,1018.21
2023-05-13T09:33:09.543Z,1018.26
2023-05-13T09:34:08.312Z,1018.30
2023-05-13T09:36:02.934Z,1018.21
2023-05-13T09:38:18.166Z,1018.18
2023-05-13T09:40:32.881Z,1018.20
2023-05-13T09:41:33.033Z,1018.16
2023-05-13T09:43:31.909Z,1018.18
2023-05-13T09:45:44.267Z,1018.17
2023-05-13T09:46:45.156Z,1018.20
2023-05-13T09:48:38.660Z,1018.11
2023-05-13T09:50:54.530Z,1018.05
2023-05-13T09:51:55.005Z,1018.14
2023-05-13T09:53:49.662Z,1018.07
2023-05-13T09:56:06.206Z,1018.08
2023-05-13T10:00:32.211Z,1018.09
2023-05-13T10:00:53.077Z,1018.09
2023-05-13T10:02:47.934Z,1017.96
2023-05-13T10:06:37.825Z,1018.02
2023-05-13T10:07:41.005Z,1018.07
2023-05-13T10:11:59.317Z,1017.98
2023-05-13T10:12:51.503Z,1017.99
2023-05-13T10:14:43.631Z,1017.98
2023-05-13T10:16:58.676Z,1018.01
2023-05-13T10:17:59.072Z,1017.98
2023-05-13T10:19:53.696Z,1017.91
2023-05-13T10:20:54.367Z,1017.94
2023-05-13T10:22:48.810Z,1018.06
2023-05-13T10:23:49.309Z,1018.05
2023-05-13T10:25:43.960Z,1018.00
2023-05-13T10:26:44.396Z,1018.00
2023-05-13T10:27:44.961Z,1018.11
2023-05-13T10:28:45.314Z,1018.12
2023-05-13T10:29:45.779Z,1017.98
2023-05-13T10:30:46.248Z,1018.00
2023-05-13T10:31:46.819Z,1017.92
2023-05-13T10:32:47.254Z,1017.99
2023-05-13T10:33:54.158Z,1017.97
2023-05-13T10:34:54.639Z,1017.90
2023-05-13T10:35:48.548Z,1017.90
2023-05-13T10:36:49.016Z,1017.93
2023-05-13T10:37:49.501Z,1017.97
2023-05-13T10:38:49.947Z,1017.99
2023-05-13T10:39:50.400Z,1018.02
2023-05-13T10:40:50.858Z,1018.06
2023-05-13T10:41:51.322Z,1018.04
2023-05-13T10:42:51.799Z,1017.95
2023-05-13T10:43:52.244Z,1017.99
2023-05-13T10:44:52.728Z,1017.95
2023-05-13T10:45:53.238Z,1018.13
2023-05-13T10:46:53.687Z,1018.01
2023-05-13T10:47:54.196Z,1018.00
2023-05-13T10:48:54.552Z,1017.95
2023-05-13T10:49:55.022Z,1017.87
2023-05-13T10:50:55.471Z,1017.91
2023-05-13T10:51:55.956Z,1017.91
2023-05-13T10:52:56.394Z,1017.91
2023-05-13T10:53:56.862Z,1017.89
2023-05-13T10:54:57.320Z,1017.97
2023-05-13T10:55:57.779Z,1017.90
2023-05-13T10:56:58.554Z,1017.90
2023-05-13T10:57:58.692Z,1017.94
2023-05-13T10:59:00.154Z,1017.87
2023-05-13T11:00:01.921Z,1017.85
2023-05-13T11:01:02.669Z,1017.97
2023-05-13T11:02:00.710Z,1017.85
2023-05-13T11:03:01.103Z,1017.86
2023-05-13T11:04:01.644Z,1017.90
2023-05-13T11:05:01.966Z,1017.93
2023-05-13T11:06:05.165Z,1017.84
2023-05-13T11:07:09.663Z,1017.87
2023-05-13T11:08:18.311Z,1018.01
2023-05-13T11:09:03.787Z,1017.93
2023-05-13T11:10:04.270Z,1017.95
2023-05-13T11:11:07.685Z,1017.94
2023-05-13T11:12:41.177Z,1018.01
2023-05-13T11:13:06.674Z,1017.97
2023-05-13T11:14:08.350Z,1018.03
2023-05-13T11:15:06.569Z,1017.95
2023-05-13T11:16:29.211Z,1018.03
2023-05-13T11:17:07.525Z,1017.87
2023-05-13T11:19:42.279Z,1017.76
2023-05-13T11:22:18.735Z,1017.82
2023-05-13T11:24:12.833Z,1017.86
2023-05-13T11:25:16.043Z,1017.89
2023-05-13T11:27:19.186Z,1017.92
2023-05-13T11:28:09.159Z,1017.92
2023-05-13T11:30:03.183Z,1017.89
2023-05-13T11:31:03.611Z,1017.78
2023-05-13T11:32:58.386Z,1017.74
2023-05-13T11:33:58.722Z,1017.74
2023-05-13T11:35:53.378Z,1017.86
2023-05-13T11:36:53.830Z,1017.93
2023-05-13T11:38:48.511Z,1017.78
2023-05-13T11:39:48.938Z,1017.79
2023-05-13T11:41:43.576Z,1017.68
2023-05-13T11:42:44.054Z,1017.82
2023-05-13T11:44:38.670Z,1017.84
2023-05-13T11:45:39.198Z,1017.86
2023-05-13T11:47:33.798Z,1017.85
2023-05-13T11:48:34.187Z,1017.79
2023-05-13T11:50:28.822Z,1017.92
2023-05-13T11:51:29.264Z,1017.87
2023-05-13T11:53:23.925Z,1017.69
2023-05-13T11:54:24.335Z,1017.67
2023-05-13T11:56:18.955Z,1017.74
2023-05-13T11:57:19.406Z,1017.70
2023-05-13T11:59:15.068Z,1017.71
2023-05-13T12:00:17.263Z,1017.67
2023-05-13T12:02:10.130Z,1017.70
2023-05-13T12:03:10.590Z,1017.70
2023-05-13T12:04:10.982Z,1017.63
2023-05-13T12:05:11.535Z,1017.71
2023-05-13T12:06:18.830Z,1017.67
2023-05-13T12:07:33.690Z,1017.67
2023-05-13T12:08:19.320Z,1017.65
2023-05-13T12:09:13.286Z,1017.67
2023-05-13T12:10:13.659Z,1017.74
2023-05-13T12:12:47.239Z,1017.90
2023-05-13T12:15:03.228Z,1017.80
2023-05-13T12:16:04.232Z,1017.72
2023-05-13T12:17:58.856Z,1017.81
2023-05-13T12:19:01.334Z,1017.75
2023-05-13T12:21:00.918Z,1017.69
2023-05-13T12:21:56.334Z,1017.75
2023-05-13T12:23:49.189Z,1017.86
2023-05-13T12:24:49.665Z,1017.72
2023-05-13T12:26:44.264Z,1017.70
2023-05-13T12:27:44.698Z,1017.70
2023-05-13T12:29:39.328Z,1017.78
2023-05-13T12:30:39.763Z,1017.75
2023-05-13T12:31:40.281Z,1017.78
2023-05-13T12:32:40.684Z,1017.71
2023-05-13T12:33:41.083Z,1017.71
2023-05-13T12:34:41.532Z,1017.72
2023-05-13T12:35:41.961Z,1017.68
2023-05-13T12:36:42.437Z,1017.67
2023-05-13T12:37:42.838Z,1017.62
2023-05-13T12:38:43.291Z,1017.64
2023-05-13T12:39:43.729Z,1017.71
2023-05-13T12:40:44.162Z,1017.80
2023-05-13T12:41:44.630Z,1017.74
2023-05-13T12:42:45.060Z,1017.78
2023-05-13T12:43:45.482Z,1017.74
2023-05-13T12:44:45.932Z,1017.68
2023-05-13T12:45:46.362Z,1017.73
2023-05-13T12:46:46.876Z,1017.63
2023-05-13T12:47:47.254Z,1017.71
2023-05-13T12:48:47.686Z,1017.71
2023-05-13T12:49:48.124Z,1017.72
2023-05-13T12:50:48.562Z,1017.60
2023-05-13T12:51:49.006Z,1017.59
2023-05-13T12:52:49.455Z,1017.60
2023-05-13T12:53:49.884Z,1017.74
2023-05-13T12:54:50.323Z,1017.74
2023-05-13T12:55:50.766Z,1017.70
2023-05-13T12:56:51.230Z,1017.63
2023-05-13T12:57:51.647Z,1017.65
2023-05-13T12:58:52.089Z,1017.66
2023-05-13T12:59:52.524Z,1017.67
2023-05-13T13:00:53.001Z,1017.71
2023-05-13T13:01:53.464Z,1017.70
2023-05-13T13:02:53.998Z,1017.70
2023-05-13T13:03:54.353Z,1017.60
2023-05-13T13:04:54.727Z,1017.54
2023-05-13T13:05:55.165Z,1017.57
2023-05-13T13:06:55.616Z,1017.60
2023-05-13T13:07:56.044Z,1017.50
2023-05-13T13:08:56.514Z,1017.55
2023-05-13T13:09:56.965Z,1017.59
2023-05-13T13:10:57.374Z,1017.62
2023-05-13T13:11:57.808Z,1017.44
2023-05-13T13:13:05.056Z,1017.57
2023-05-13T13:13:58.689Z,1017.52
2023-05-13T13:14:59.151Z,1017.50
2023-05-13T13:15:59.593Z,1017.63